Arroyo Grande, CA (93420)

3:10 PM PDT on September 19, 2014 (GMT -0700)
Greenwood | Change Station
CLOSE
Current Station
Personal Weather Station
Location: Arroyo Grande, CA
Elevation: 180 ft
Nearby Weather Stations

Elev 180 ft 35.12 °N, 120.55 °W | Updated 5 seconds ago

Clear
Clear
75.5 °F
Feels Like 77 °F
N
5.0
Wind Variable Wind from WSW
Gusts 10.0 mph

Today
High -- | Low -- °F
--% Chance of Precip.
Yesterday
High -- | Low -- °F
Precip. -- in
6:48 AM 7:03 PM
Waning Crescent, 16% visible
Pressure 29.85 in
Visibility 10.0 miles
Clouds Clear
Heat Index 77 °F
Dew Point 65 °F
Humidity 69%
Rainfall 0.00 in
Snow Depth 1 in , 0 in , 1 in
UV 7 out of 12
Pollen 6.60 out of 12
Air Quality Not available.
Flu Activity Not available.
METAR KSBP 192156Z 31014KT 10SM CLR 24/15 A2985 RMK AO2 SLP106 T02440150

More Conditions Fewer Conditions

Pressure 29.85 in
Visibility 10.0 miles
Clouds Clear
Heat Index 77 °F
Dew Point 65 °F
Humidity 69%
Rainfall 0.00 in
Snow Depth 1 in , 0 in , 1 in
UV 7 out of 12
Pollen 6.60 out of 12
Air Quality Not available.
Flu Activity Not available.
METAR KSBP 192156Z 31014KT 10SM CLR 24/15 A2985 RMK AO2 SLP106 T02440150

More Conditions Fewer Conditions

10-Day Weather Forecast

Almanac

Astronomy

Sep. 19, 2014 Rise Set
Actual Time 6:48 AM PDT 7:03 PM PDT
Civil Twilight 6:22 AM PDT 7:28 PM PDT
Nautical Twilight 5:53 AM PDT 7:58 PM PDT
Astronomical Twilight 5:23 AM PDT 8:28 PM PDT
Moon 2:45 AM PDT 4:28 PM PDT
Length of Visible Light 13h 05m
Length of Day
12h 15m
Tomorrow will be 2m 11s shorter.
Waning Crescent, 16% of the Moon is Illuminated
Today
Waning Crescent
Sep 24
New
Oct 1
First Quarter
Oct 8
Full
Oct 15
Last Quarter

Today's Extremes

State Highs State Lows

Community

WunderPhotos

Upload Photos

1,754,719 photos uploaded!

WunderBlogs® & News

Nearby

Snow Depth

Station Depth Elevation
Adin Mountain 1 in 6200 ft
Summit Meadow 0 in 9122 ft
Leavitt Meadows 0 in 7200 ft
CSS Lab 1 in 6900 ft

Earthquake Activity

City Distance Mag. Time & Date
Corcoran, California 82 miles 3.0 3:59 PM PDT
2014-09-18
Minimum magnitude displayed is 2.5.

Coastal Water Temperatures

Place Temperature
No Stations Reporting

Nearby Weather Stations